This is the latest recevied weather packets stored in our database for station/object N4CRH-13. If no packets are shown the sender has not sent any weather packets the latest 10 day(s).
| Time | Temp. | Humidity | Pressure | Rain* | Wind** | Luminosity | Snow |
|---|---|---|---|---|---|---|---|
| 1777516448 | 3.89° C | 91% | 1297.9 hPa | 0 mm | - | 0 W/m² | - |
| 1777516143 | 3.89° C | 90% | 1297.9 hPa | 0 mm | - | 0 W/m² | - |
| 1777515841 | 3.89° C | 89% | 1297.9 hPa | 0 mm | - | 0 W/m² | - |
| 1777515537 | 3.89° C | 89% | 1298 hPa | 0 mm | - | 0 W/m² | - |
| 1777515235 | 3.89° C | 89% | 1297.9 hPa | 1.27 mm | - | 0 W/m² | - |
| 1777514930 | 3.89° C | 89% | 1298 hPa | 1.27 mm | - | 0 W/m² | - |
| 1777514627 | 4.44° C | 89% | 1297.9 hPa | 1.78 mm | - | 0 W/m² | - |
| 1777514325 | 4.44° C | 87% | 1297.5 hPa | 1.78 mm | - | 0 W/m² | - |
| 1777514021 | 4.44° C | 85% | 1297.5 hPa | 1.78 mm | - | 0 W/m² | - |
| 1777513719 | 5° C | 86% | 1297.5 hPa | 1.78 mm | - | 1 W/m² | - |
| 1777513112 | 5.56° C | 85% | 1297 hPa | 0 mm | - | 4 W/m² | - |
| 1777512504 | 5.56° C | 83% | 1297.3 hPa | 0 mm | - | 4 W/m² | - |
| 1777512201 | 5.56° C | 84% | 1297.1 hPa | 0 mm | - | 5 W/m² | - |
| 1777511899 | 5.56° C | 83% | 1297 hPa | 0 mm | - | 5 W/m² | - |
| 1777509471 | 6.11° C | 77% | 1296.8 hPa | 0 mm | - | 42 W/m² | - |
| 1777509169 | 6.11° C | 79% | 1296.7 hPa | 0 mm | - | 48 W/m² | - |
| 1777508865 | 6.11° C | 79% | 1296.7 hPa | 0 mm | - | 42 W/m² | - |
| 1777508259 | 5.56° C | 82% | 1296.7 hPa | 0 mm | - | 55 W/m² | - |
| 1777506138 | 6.11° C | 84% | 1296.4 hPa | 0 mm | - | 58 W/m² | - |
| 1777504621 | 6.11° C | 81% | 1296.4 hPa | 0 mm | - | 95 W/m² | - |
| 1777501587 | 6.11° C | 85% | 1295.8 hPa | 0 mm | - | 111 W/m² | - |
| 1777499769 | 5° C | 89% | 1295.9 hPa | 0 mm | - | 193 W/m² | - |
| 1777497647 | 7.22° C | 75% | 1295.9 hPa | 0 mm | - | 240 W/m² | - |
| 1777496433 | 6.67° C | 84% | 1296 hPa | 0 mm | - | 755 W/m² | - |
| 1777494006 | 5° C | 85% | 1296.3 hPa | 1.78 mm | - | 69 W/m² | - |
* Rain latest hour (hover to see other rain measurements)
** Current wind speed in m/s (hover to see current wind gust speed)